Clearview, Texas
Current Conditions -  °F | °C
As of 1:35 AM on Saturday 29 Nov 2014 (Local Time) from KGYB Reporting Station
Clear Clear  
Wind Chill: 56°   Ceiling: Unl
Heat Index: 56°   Visibility: 10mi
Dew Point: 54°   Wind: 9mph
Humidity: 91%   Direction: 200°SSW
Pressure: 30.12"   Gusts: NA
Location:  30.1644°N, 97.2747°W
Report Text: KGYB 290735Z AUTO 20008KT 10SM CLR 14/12 A3012 RMK AO2 T01360122
Loading
Personal Weather Stations






























Interactive Weather Map New forecast layout! Learn more

10-Day Weather Forecast

Advertisements
Track Severe Weather on mobile